sensor_id;sensor_type;location;lat;lon;timestamp;P1;durP1;ratioP1;P2;durP2;ratioP2
10963;SDS011;5534;48.784;9.190;2023-03-21T00:00:41;6.82;;;2.65;;
10963;SDS011;5534;48.784;9.190;2023-03-21T00:03:07;3.40;;;2.50;;
10963;SDS011;5534;48.784;9.190;2023-03-21T00:05:33;3.83;;;2.40;;
10963;SDS011;5534;48.784;9.190;2023-03-21T00:07:58;4.28;;;2.90;;
10963;SDS011;5534;48.784;9.190;2023-03-21T00:10:24;5.43;;;3.03;;
10963;SDS011;5534;48.784;9.190;2023-03-21T00:12:50;5.18;;;2.55;;
10963;SDS011;5534;48.784;9.190;2023-03-21T00:15:23;5.10;;;2.65;;
10963;SDS011;5534;48.784;9.190;2023-03-21T00:17:54;3.80;;;2.60;;
10963;SDS011;5534;48.784;9.190;2023-03-21T00:20:30;3.65;;;2.53;;
10963;SDS011;5534;48.784;9.190;2023-03-21T00:22:58;3.67;;;2.65;;
10963;SDS011;5534;48.784;9.190;2023-03-21T00:25:26;4.05;;;3.00;;
10963;SDS011;5534;48.784;9.190;2023-03-21T00:27:52;3.45;;;2.65;;
10963;SDS011;5534;48.784;9.190;2023-03-21T00:30:18;5.13;;;2.63;;
10963;SDS011;5534;48.784;9.190;2023-03-21T00:32:45;4.05;;;2.70;;
10963;SDS011;5534;48.784;9.190;2023-03-21T00:35:11;3.92;;;2.80;;
10963;SDS011;5534;48.784;9.190;2023-03-21T00:37:36;4.13;;;2.75;;
10963;SDS011;5534;48.784;9.190;2023-03-21T00:40:02;4.22;;;2.65;;
10963;SDS011;5534;48.784;9.190;2023-03-21T00:42:36;5.78;;;3.28;;
10963;SDS011;5534;48.784;9.190;2023-03-21T00:45:02;5.15;;;3.20;;
10963;SDS011;5534;48.784;9.190;2023-03-21T00:47:29;4.85;;;3.33;;
10963;SDS011;5534;48.784;9.190;2023-03-21T00:49:54;6.03;;;3.33;;
10963;SDS011;5534;48.784;9.190;2023-03-21T00:52:21;5.13;;;3.27;;
10963;SDS011;5534;48.784;9.190;2023-03-21T00:54:47;4.30;;;2.80;;
10963;SDS011;5534;48.784;9.190;2023-03-21T00:57:13;3.78;;;2.72;;
10963;SDS011;5534;48.784;9.190;2023-03-21T00:59:38;5.90;;;3.07;;
10963;SDS011;5534;48.784;9.190;2023-03-21T01:02:04;4.35;;;3.00;;
10963;SDS011;5534;48.784;9.190;2023-03-21T01:04:33;5.35;;;3.33;;
10963;SDS011;5534;48.784;9.190;2023-03-21T01:06:59;5.35;;;3.20;;
10963;SDS011;5534;48.784;9.190;2023-03-21T01:09:25;5.30;;;2.93;;
10963;SDS011;5534;48.784;9.190;2023-03-21T01:11:51;5.57;;;3.15;;
10963;SDS011;5534;48.784;9.190;2023-03-21T01:14:18;4.90;;;3.42;;
10963;SDS011;5534;48.784;9.190;2023-03-21T01:16:45;5.47;;;2.70;;
10963;SDS011;5534;48.784;9.190;2023-03-21T01:19:12;3.72;;;2.78;;
10963;SDS011;5534;48.784;9.190;2023-03-21T01:21:40;5.90;;;3.00;;
10963;SDS011;5534;48.784;9.190;2023-03-21T01:24:06;4.93;;;3.08;;
10963;SDS011;5534;48.784;9.190;2023-03-21T01:26:32;4.50;;;2.97;;
10963;SDS011;5534;48.784;9.190;2023-03-21T01:28:58;3.90;;;2.67;;
10963;SDS011;5534;48.784;9.190;2023-03-21T01:31:24;4.22;;;2.80;;
10963;SDS011;5534;48.784;9.190;2023-03-21T01:33:50;6.28;;;2.88;;
10963;SDS011;5534;48.784;9.190;2023-03-21T01:36:19;4.38;;;2.80;;
10963;SDS011;5534;48.784;9.190;2023-03-21T01:38:47;6.03;;;3.10;;
10963;SDS011;5534;48.784;9.190;2023-03-21T01:43:50;3.72;;;2.50;;
10963;SDS011;5534;48.784;9.190;2023-03-21T01:49:09;4.63;;;2.50;;
10963;SDS011;5534;48.784;9.190;2023-03-21T01:51:40;4.53;;;3.20;;
10963;SDS011;5534;48.784;9.190;2023-03-21T01:54:11;3.90;;;3.00;;
10963;SDS011;5534;48.784;9.190;2023-03-21T01:56:41;3.70;;;2.70;;
10963;SDS011;5534;48.784;9.190;2023-03-21T01:59:11;4.63;;;2.80;;
10963;SDS011;5534;48.784;9.190;2023-03-21T02:01:45;5.53;;;2.97;;
10963;SDS011;5534;48.784;9.190;2023-03-21T02:04:12;5.47;;;3.20;;
10963;SDS011;5534;48.784;9.190;2023-03-21T02:09:09;3.10;;;2.80;;
10963;SDS011;5534;48.784;9.190;2023-03-21T02:11:38;4.43;;;2.90;;
10963;SDS011;5534;48.784;9.190;2023-03-21T02:14:05;4.27;;;2.90;;
10963;SDS011;5534;48.784;9.190;2023-03-21T02:16:43;6.80;;;3.10;;
10963;SDS011;5534;48.784;9.190;2023-03-21T02:19:17;5.18;;;2.95;;
10963;SDS011;5534;48.784;9.190;2023-03-21T02:27:12;5.03;;;2.88;;
10963;SDS011;5534;48.784;9.190;2023-03-21T02:29:45;6.22;;;3.05;;
10963;SDS011;5534;48.784;9.190;2023-03-21T02:35:41;5.97;;;2.80;;
10963;SDS011;5534;48.784;9.190;2023-03-21T02:38:51;5.80;;;2.92;;
10963;SDS011;5534;48.784;9.190;2023-03-21T02:44:26;4.47;;;2.95;;
10963;SDS011;5534;48.784;9.190;2023-03-21T02:47:23;4.78;;;3.20;;
10963;SDS011;5534;48.784;9.190;2023-03-21T02:50:09;6.67;;;2.80;;
10963;SDS011;5534;48.784;9.190;2023-03-21T02:52:41;4.78;;;3.03;;
10963;SDS011;5534;48.784;9.190;2023-03-21T02:55:30;4.53;;;2.63;;
10963;SDS011;5534;48.784;9.190;2023-03-21T02:57:57;3.38;;;2.65;;
10963;SDS011;5534;48.784;9.190;2023-03-21T03:00:25;4.18;;;2.22;;
10963;SDS011;5534;48.784;9.190;2023-03-21T03:02:53;7.82;;;3.13;;
10963;SDS011;5534;48.784;9.190;2023-03-21T03:05:24;2.97;;;2.50;;
10963;SDS011;5534;48.784;9.190;2023-03-21T03:13:54;4.88;;;2.70;;
10963;SDS011;5534;48.784;9.190;2023-03-21T03:19:27;4.15;;;2.70;;
10963;SDS011;5534;48.784;9.190;2023-03-21T03:22:07;3.30;;;2.60;;
10963;SDS011;5534;48.784;9.190;2023-03-21T03:24:59;3.63;;;2.63;;
10963;SDS011;5534;48.784;9.190;2023-03-21T03:27:27;4.07;;;2.90;;
10963;SDS011;5534;48.784;9.190;2023-03-21T03:29:58;4.73;;;2.60;;
10963;SDS011;5534;48.784;9.190;2023-03-21T03:32:59;4.00;;;2.47;;
10963;SDS011;5534;48.784;9.190;2023-03-21T03:35:21;4.70;;;2.60;;
10963;SDS011;5534;48.784;9.190;2023-03-21T03:37:50;2.60;;;1.80;;
10963;SDS011;5534;48.784;9.190;2023-03-21T03:40:25;2.13;;;1.90;;
10963;SDS011;5534;48.784;9.190;2023-03-21T03:42:56;2.00;;;1.70;;
10963;SDS011;5534;48.784;9.190;2023-03-21T03:45:29;2.83;;;1.97;;
10963;SDS011;5534;48.784;9.190;2023-03-21T03:48:06;4.43;;;2.00;;
10963;SDS011;5534;48.784;9.190;2023-03-21T03:50:38;5.97;;;2.03;;
10963;SDS011;5534;48.784;9.190;2023-03-21T03:53:21;3.60;;;2.40;;
10963;SDS011;5534;48.784;9.190;2023-03-21T03:56:17;2.50;;;1.92;;
10963;SDS011;5534;48.784;9.190;2023-03-21T03:58:43;4.85;;;1.90;;
10963;SDS011;5534;48.784;9.190;2023-03-21T04:01:10;5.20;;;2.13;;
10963;SDS011;5534;48.784;9.190;2023-03-21T04:03:36;2.30;;;2.10;;
10963;SDS011;5534;48.784;9.190;2023-03-21T04:06:05;2.78;;;2.15;;
10963;SDS011;5534;48.784;9.190;2023-03-21T04:08:31;3.45;;;2.25;;
10963;SDS011;5534;48.784;9.190;2023-03-21T04:10:57;5.20;;;2.20;;
10963;SDS011;5534;48.784;9.190;2023-03-21T04:13:22;3.60;;;2.10;;
10963;SDS011;5534;48.784;9.190;2023-03-21T04:15:49;4.30;;;2.10;;
10963;SDS011;5534;48.784;9.190;2023-03-21T04:18:15;3.70;;;2.40;;
10963;SDS011;5534;48.784;9.190;2023-03-21T04:20:41;2.75;;;2.00;;
10963;SDS011;5534;48.784;9.190;2023-03-21T04:23:08;3.90;;;1.90;;
10963;SDS011;5534;48.784;9.190;2023-03-21T04:25:35;3.58;;;2.17;;
10963;SDS011;5534;48.784;9.190;2023-03-21T04:28:02;3.90;;;2.55;;
10963;SDS011;5534;48.784;9.190;2023-03-21T04:30:27;3.58;;;2.15;;
10963;SDS011;5534;48.784;9.190;2023-03-21T04:32:56;3.05;;;2.30;;
10963;SDS011;5534;48.784;9.190;2023-03-21T04:35:25;4.30;;;2.60;;
10963;SDS011;5534;48.784;9.190;2023-03-21T04:37:51;4.13;;;2.37;;
10963;SDS011;5534;48.784;9.190;2023-03-21T04:40:17;3.45;;;2.15;;
10963;SDS011;5534;48.784;9.190;2023-03-21T04:42:43;3.80;;;2.30;;
10963;SDS011;5534;48.784;9.190;2023-03-21T04:45:13;3.93;;;2.20;;
10963;SDS011;5534;48.784;9.190;2023-03-21T04:47:40;2.83;;;2.05;;
10963;SDS011;5534;48.784;9.190;2023-03-21T04:50:08;5.07;;;2.40;;
10963;SDS011;5534;48.784;9.190;2023-03-21T04:52:34;2.92;;;2.00;;
10963;SDS011;5534;48.784;9.190;2023-03-21T04:55:00;2.90;;;1.93;;
10963;SDS011;5534;48.784;9.190;2023-03-21T04:57:26;2.67;;;2.08;;
10963;SDS011;5534;48.784;9.190;2023-03-21T04:59:52;5.03;;;2.37;;
10963;SDS011;5534;48.784;9.190;2023-03-21T05:02:18;3.37;;;1.93;;
10963;SDS011;5534;48.784;9.190;2023-03-21T05:04:44;5.07;;;2.07;;
10963;SDS011;5534;48.784;9.190;2023-03-21T05:07:10;3.80;;;2.13;;
10963;SDS011;5534;48.784;9.190;2023-03-21T05:09:36;3.28;;;1.95;;
10963;SDS011;5534;48.784;9.190;2023-03-21T05:12:02;4.13;;;2.67;;
10963;SDS011;5534;48.784;9.190;2023-03-21T05:14:27;4.33;;;2.37;;
10963;SDS011;5534;48.784;9.190;2023-03-21T05:16:53;2.53;;;2.10;;
10963;SDS011;5534;48.784;9.190;2023-03-21T05:19:27;4.07;;;2.37;;
10963;SDS011;5534;48.784;9.190;2023-03-21T05:22:02;2.73;;;2.03;;
10963;SDS011;5534;48.784;9.190;2023-03-21T05:24:30;2.10;;;1.63;;
10963;SDS011;5534;48.784;9.190;2023-03-21T05:26:57;2.93;;;1.90;;
10963;SDS011;5534;48.784;9.190;2023-03-21T05:29:27;2.50;;;1.90;;
10963;SDS011;5534;48.784;9.190;2023-03-21T05:31:57;2.90;;;1.83;;
10963;SDS011;5534;48.784;9.190;2023-03-21T05:34:23;4.73;;;1.87;;
10963;SDS011;5534;48.784;9.190;2023-03-21T05:36:49;3.73;;;2.00;;
10963;SDS011;5534;48.784;9.190;2023-03-21T05:39:15;3.95;;;1.90;;
10963;SDS011;5534;48.784;9.190;2023-03-21T05:41:41;3.17;;;1.80;;
10963;SDS011;5534;48.784;9.190;2023-03-21T05:44:07;3.57;;;2.27;;
10963;SDS011;5534;48.784;9.190;2023-03-21T05:46:33;2.20;;;1.70;;
10963;SDS011;5534;48.784;9.190;2023-03-21T05:48:58;3.37;;;2.03;;
10963;SDS011;5534;48.784;9.190;2023-03-21T05:51:24;2.23;;;1.70;;
10963;SDS011;5534;48.784;9.190;2023-03-21T05:53:53;2.40;;;1.73;;
10963;SDS011;5534;48.784;9.190;2023-03-21T05:56:18;3.17;;;1.63;;
10963;SDS011;5534;48.784;9.190;2023-03-21T05:58:44;3.93;;;2.20;;
10963;SDS011;5534;48.784;9.190;2023-03-21T06:01:10;2.73;;;2.00;;
10963;SDS011;5534;48.784;9.190;2023-03-21T06:03:36;3.37;;;2.23;;
10963;SDS011;5534;48.784;9.190;2023-03-21T06:06:03;3.10;;;2.10;;
10963;SDS011;5534;48.784;9.190;2023-03-21T06:08:30;4.17;;;2.27;;
10963;SDS011;5534;48.784;9.190;2023-03-21T06:10:56;3.00;;;2.53;;
10963;SDS011;5534;48.784;9.190;2023-03-21T06:13:22;6.13;;;2.80;;
10963;SDS011;5534;48.784;9.190;2023-03-21T06:15:48;3.90;;;2.07;;
10963;SDS011;5534;48.784;9.190;2023-03-21T06:18:13;4.20;;;2.50;;
10963;SDS011;5534;48.784;9.190;2023-03-21T06:20:39;5.43;;;2.25;;
10963;SDS011;5534;48.784;9.190;2023-03-21T06:23:05;5.27;;;2.00;;
10963;SDS011;5534;48.784;9.190;2023-03-21T06:25:31;2.23;;;1.67;;
10963;SDS011;5534;48.784;9.190;2023-03-21T06:27:57;2.58;;;2.38;;
10963;SDS011;5534;48.784;9.190;2023-03-21T06:30:26;4.70;;;2.27;;
10963;SDS011;5534;48.784;9.190;2023-03-21T06:32:52;3.53;;;2.05;;
10963;SDS011;5534;48.784;9.190;2023-03-21T06:35:19;2.87;;;1.90;;
10963;SDS011;5534;48.784;9.190;2023-03-21T06:37:45;6.83;;;2.73;;
10963;SDS011;5534;48.784;9.190;2023-03-21T06:40:13;2.53;;;2.00;;
10963;SDS011;5534;48.784;9.190;2023-03-21T06:42:40;4.03;;;1.97;;
10963;SDS011;5534;48.784;9.190;2023-03-21T06:45:05;2.63;;;1.60;;
10963;SDS011;5534;48.784;9.190;2023-03-21T06:47:32;5.77;;;2.00;;
10963;SDS011;5534;48.784;9.190;2023-03-21T06:49:58;4.30;;;1.93;;
10963;SDS011;5534;48.784;9.190;2023-03-21T06:52:23;2.30;;;1.77;;
10963;SDS011;5534;48.784;9.190;2023-03-21T06:54:49;2.90;;;2.03;;
10963;SDS011;5534;48.784;9.190;2023-03-21T06:57:15;4.57;;;1.97;;
10963;SDS011;5534;48.784;9.190;2023-03-21T06:59:42;3.90;;;2.63;;
10963;SDS011;5534;48.784;9.190;2023-03-21T07:02:09;4.20;;;2.83;;
10963;SDS011;5534;48.784;9.190;2023-03-21T07:04:35;6.27;;;5.03;;
10963;SDS011;5534;48.784;9.190;2023-03-21T07:07:01;3.63;;;2.93;;
10963;SDS011;5534;48.784;9.190;2023-03-21T07:09:28;9.17;;;5.57;;
10963;SDS011;5534;48.784;9.190;2023-03-21T07:11:53;6.83;;;4.37;;
10963;SDS011;5534;48.784;9.190;2023-03-21T07:14:19;9.00;;;5.60;;
10963;SDS011;5534;48.784;9.190;2023-03-21T07:16:45;3.93;;;2.93;;
10963;SDS011;5534;48.784;9.190;2023-03-21T07:19:11;4.80;;;2.67;;
10963;SDS011;5534;48.784;9.190;2023-03-21T07:21:36;5.37;;;2.93;;
10963;SDS011;5534;48.784;9.190;2023-03-21T07:24:02;2.77;;;2.40;;
10963;SDS011;5534;48.784;9.190;2023-03-21T07:26:28;5.73;;;2.40;;
10963;SDS011;5534;48.784;9.190;2023-03-21T07:28:54;8.77;;;6.03;;
10963;SDS011;5534;48.784;9.190;2023-03-21T07:31:20;3.70;;;2.58;;
10963;SDS011;5534;48.784;9.190;2023-03-21T07:33:45;3.63;;;2.70;;
10963;SDS011;5534;48.784;9.190;2023-03-21T07:36:11;4.57;;;2.70;;
10963;SDS011;5534;48.784;9.190;2023-03-21T07:38:40;5.10;;;3.13;;
10963;SDS011;5534;48.784;9.190;2023-03-21T07:41:10;4.38;;;3.10;;
10963;SDS011;5534;48.784;9.190;2023-03-21T07:43:37;5.53;;;3.10;;
10963;SDS011;5534;48.784;9.190;2023-03-21T07:46:06;5.40;;;3.63;;
10963;SDS011;5534;48.784;9.190;2023-03-21T07:48:32;6.10;;;3.20;;
10963;SDS011;5534;48.784;9.190;2023-03-21T07:50:57;7.88;;;3.13;;
10963;SDS011;5534;48.784;9.190;2023-03-21T07:53:24;6.22;;;3.40;;
10963;SDS011;5534;48.784;9.190;2023-03-21T07:55:50;5.13;;;3.22;;
10963;SDS011;5534;48.784;9.190;2023-03-21T07:58:17;6.63;;;3.10;;
10963;SDS011;5534;48.784;9.190;2023-03-21T08:00:43;5.25;;;3.00;;
10963;SDS011;5534;48.784;9.190;2023-03-21T08:03:09;4.50;;;2.60;;
10963;SDS011;5534;48.784;9.190;2023-03-21T08:05:35;4.70;;;3.10;;
10963;SDS011;5534;48.784;9.190;2023-03-21T08:08:02;5.20;;;3.15;;
10963;SDS011;5534;48.784;9.190;2023-03-21T08:10:29;4.30;;;2.47;;
10963;SDS011;5534;48.784;9.190;2023-03-21T08:12:54;5.10;;;3.13;;
10963;SDS011;5534;48.784;9.190;2023-03-21T08:15:20;4.50;;;3.10;;
10963;SDS011;5534;48.784;9.190;2023-03-21T08:17:46;7.72;;;3.20;;
10963;SDS011;5534;48.784;9.190;2023-03-21T08:20:13;5.65;;;2.83;;
10963;SDS011;5534;48.784;9.190;2023-03-21T08:22:42;4.63;;;3.08;;
10963;SDS011;5534;48.784;9.190;2023-03-21T08:25:08;3.95;;;3.15;;
10963;SDS011;5534;48.784;9.190;2023-03-21T08:27:38;5.45;;;2.92;;
10963;SDS011;5534;48.784;9.190;2023-03-21T08:30:08;5.20;;;2.83;;
10963;SDS011;5534;48.784;9.190;2023-03-21T08:32:36;6.73;;;3.33;;
10963;SDS011;5534;48.784;9.190;2023-03-21T08:35:04;5.17;;;3.50;;
10963;SDS011;5534;48.784;9.190;2023-03-21T08:37:34;3.13;;;2.47;;
10963;SDS011;5534;48.784;9.190;2023-03-21T08:40:01;3.30;;;2.58;;
10963;SDS011;5534;48.784;9.190;2023-03-21T08:42:31;4.20;;;2.70;;
10963;SDS011;5534;48.784;9.190;2023-03-21T08:44:56;3.22;;;2.17;;
10963;SDS011;5534;48.784;9.190;2023-03-21T08:47:22;4.20;;;1.95;;
10963;SDS011;5534;48.784;9.190;2023-03-21T08:49:48;1.88;;;1.50;;
10963;SDS011;5534;48.784;9.190;2023-03-21T08:52:13;2.97;;;1.85;;
10963;SDS011;5534;48.784;9.190;2023-03-21T08:54:39;4.70;;;1.73;;
10963;SDS011;5534;48.784;9.190;2023-03-21T08:57:06;3.30;;;2.00;;
10963;SDS011;5534;48.784;9.190;2023-03-21T08:59:33;4.72;;;2.60;;
10963;SDS011;5534;48.784;9.190;2023-03-21T09:01:59;4.93;;;3.40;;
10963;SDS011;5534;48.784;9.190;2023-03-21T09:04:25;5.95;;;3.40;;
10963;SDS011;5534;48.784;9.190;2023-03-21T09:06:51;2.63;;;1.95;;
10963;SDS011;5534;48.784;9.190;2023-03-21T09:09:17;1.63;;;1.52;;
10963;SDS011;5534;48.784;9.190;2023-03-21T09:11:43;3.33;;;1.55;;
10963;SDS011;5534;48.784;9.190;2023-03-21T09:14:08;2.25;;;1.40;;
10963;SDS011;5534;48.784;9.190;2023-03-21T09:16:35;4.57;;;1.70;;
10963;SDS011;5534;48.784;9.190;2023-03-21T09:19:01;1.70;;;1.38;;
10963;SDS011;5534;48.784;9.190;2023-03-21T09:21:28;3.88;;;1.60;;
10963;SDS011;5534;48.784;9.190;2023-03-21T09:23:55;1.60;;;1.30;;
10963;SDS011;5534;48.784;9.190;2023-03-21T09:26:24;2.05;;;1.27;;
10963;SDS011;5534;48.784;9.190;2023-03-21T09:28:52;2.33;;;1.52;;
10963;SDS011;5534;48.784;9.190;2023-03-21T09:31:18;2.58;;;1.98;;
10963;SDS011;5534;48.784;9.190;2023-03-21T09:33:48;1.48;;;1.00;;
10963;SDS011;5534;48.784;9.190;2023-03-21T09:36:14;2.47;;;0.90;;
10963;SDS011;5534;48.784;9.190;2023-03-21T09:38:43;5.72;;;3.20;;
10963;SDS011;5534;48.784;9.190;2023-03-21T09:41:24;1.92;;;1.00;;
10963;SDS011;5534;48.784;9.190;2023-03-21T09:44:05;2.35;;;1.02;;
10963;SDS011;5534;48.784;9.190;2023-03-21T09:49:33;2.88;;;1.00;;
10963;SDS011;5534;48.784;9.190;2023-03-21T09:52:04;3.55;;;2.38;;
10963;SDS011;5534;48.784;9.190;2023-03-21T09:54:39;3.10;;;1.60;;
10963;SDS011;5534;48.784;9.190;2023-03-21T09:57:19;2.30;;;1.40;;
10963;SDS011;5534;48.784;9.190;2023-03-21T09:59:57;33.60;;;5.93;;
10963;SDS011;5534;48.784;9.190;2023-03-21T10:02:44;4.00;;;2.63;;
10963;SDS011;5534;48.784;9.190;2023-03-21T10:05:18;2.00;;;1.27;;
10963;SDS011;5534;48.784;9.190;2023-03-21T10:08:02;3.20;;;1.83;;
10963;SDS011;5534;48.784;9.190;2023-03-21T10:10:48;4.10;;;2.25;;
10963;SDS011;5534;48.784;9.190;2023-03-21T10:13:26;2.70;;;1.10;;
10963;SDS011;5534;48.784;9.190;2023-03-21T10:15:57;4.65;;;2.70;;
10963;SDS011;5534;48.784;9.190;2023-03-21T10:18:33;1.92;;;1.50;;
10963;SDS011;5534;48.784;9.190;2023-03-21T10:21:01;2.03;;;1.65;;
10963;SDS011;5534;48.784;9.190;2023-03-21T10:23:29;1.10;;;0.85;;
10963;SDS011;5534;48.784;9.190;2023-03-21T10:25:56;1.63;;;1.40;;
10963;SDS011;5534;48.784;9.190;2023-03-21T10:28:29;1.27;;;1.02;;
10963;SDS011;5534;48.784;9.190;2023-03-21T10:31:00;2.22;;;1.75;;
10963;SDS011;5534;48.784;9.190;2023-03-21T10:33:31;2.03;;;1.20;;
10963;SDS011;5534;48.784;9.190;2023-03-21T10:36:00;1.77;;;1.13;;
10963;SDS011;5534;48.784;9.190;2023-03-21T10:38:59;2.95;;;2.00;;
10963;SDS011;5534;48.784;9.190;2023-03-21T10:41:28;3.03;;;1.50;;
10963;SDS011;5534;48.784;9.190;2023-03-21T10:44:05;1.15;;;0.95;;
10963;SDS011;5534;48.784;9.190;2023-03-21T10:46:33;1.95;;;1.50;;
10963;SDS011;5534;48.784;9.190;2023-03-21T10:48:59;1.80;;;0.90;;
10963;SDS011;5534;48.784;9.190;2023-03-21T10:51:35;2.75;;;2.00;;
10963;SDS011;5534;48.784;9.190;2023-03-21T10:54:04;3.25;;;2.40;;
10963;SDS011;5534;48.784;9.190;2023-03-21T10:56:39;1.05;;;0.90;;
10963;SDS011;5534;48.784;9.190;2023-03-21T10:59:16;1.25;;;1.00;;
10963;SDS011;5534;48.784;9.190;2023-03-21T11:01:47;1.90;;;1.25;;
10963;SDS011;5534;48.784;9.190;2023-03-21T11:04:16;1.10;;;1.00;;
10963;SDS011;5534;48.784;9.190;2023-03-21T11:06:58;3.75;;;1.42;;
10963;SDS011;5534;48.784;9.190;2023-03-21T11:12:34;1.50;;;1.17;;
10963;SDS011;5534;48.784;9.190;2023-03-21T11:17:58;2.10;;;0.90;;
10963;SDS011;5534;48.784;9.190;2023-03-21T11:20:30;1.30;;;0.90;;
10963;SDS011;5534;48.784;9.190;2023-03-21T11:22:57;1.30;;;0.95;;
10963;SDS011;5534;48.784;9.190;2023-03-21T11:25:31;1.48;;;1.00;;
10963;SDS011;5534;48.784;9.190;2023-03-21T11:28:12;2.15;;;1.27;;
10963;SDS011;5534;48.784;9.190;2023-03-21T11:30:56;1.17;;;0.98;;
10963;SDS011;5534;48.784;9.190;2023-03-21T11:33:27;1.70;;;1.20;;
10963;SDS011;5534;48.784;9.190;2023-03-21T11:35:58;2.28;;;1.48;;
10963;SDS011;5534;48.784;9.190;2023-03-21T11:38:28;2.15;;;1.35;;
10963;SDS011;5534;48.784;9.190;2023-03-21T11:40:58;1.02;;;0.93;;
10963;SDS011;5534;48.784;9.190;2023-03-21T11:46:01;11.63;;;3.65;;
10963;SDS011;5534;48.784;9.190;2023-03-21T11:48:43;6.53;;;2.00;;
10963;SDS011;5534;48.784;9.190;2023-03-21T12:05:20;2.38;;;1.38;;
10963;SDS011;5534;48.784;9.190;2023-03-21T12:07:58;2.63;;;1.88;;
10963;SDS011;5534;48.784;9.190;2023-03-21T12:10:44;3.90;;;1.80;;
10963;SDS011;5534;48.784;9.190;2023-03-21T12:21:39;2.60;;;1.75;;
10963;SDS011;5534;48.784;9.190;2023-03-21T12:24:19;6.75;;;2.13;;
10963;SDS011;5534;48.784;9.190;2023-03-21T12:32:24;2.22;;;1.50;;
10963;SDS011;5534;48.784;9.190;2023-03-21T12:43:21;2.97;;;1.85;;
10963;SDS011;5534;48.784;9.190;2023-03-21T12:45:59;5.82;;;2.95;;
10963;SDS011;5534;48.784;9.190;2023-03-21T12:51:22;3.05;;;1.75;;
10963;SDS011;5534;48.784;9.190;2023-03-21T12:54:06;3.47;;;2.60;;
10963;SDS011;5534;48.784;9.190;2023-03-21T12:56:54;2.28;;;1.40;;
10963;SDS011;5534;48.784;9.190;2023-03-21T12:59:38;3.63;;;1.90;;
10963;SDS011;5534;48.784;9.190;2023-03-21T13:02:32;1.98;;;1.63;;
10963;SDS011;5534;48.784;9.190;2023-03-21T13:05:17;5.18;;;2.33;;
10963;SDS011;5534;48.784;9.190;2023-03-21T13:07:58;2.45;;;1.88;;
10963;SDS011;5534;48.784;9.190;2023-03-21T13:10:31;4.80;;;2.45;;
10963;SDS011;5534;48.784;9.190;2023-03-21T13:18:22;3.60;;;1.73;;
10963;SDS011;5534;48.784;9.190;2023-03-21T13:20:56;4.60;;;1.83;;
10963;SDS011;5534;48.784;9.190;2023-03-21T13:23:35;2.47;;;1.70;;
10963;SDS011;5534;48.784;9.190;2023-03-21T13:26:02;2.47;;;1.30;;
10963;SDS011;5534;48.784;9.190;2023-03-21T13:28:35;2.05;;;1.13;;
10963;SDS011;5534;48.784;9.190;2023-03-21T13:33:52;1.45;;;1.33;;
10963;SDS011;5534;48.784;9.190;2023-03-21T13:36:23;1.80;;;1.40;;
10963;SDS011;5534;48.784;9.190;2023-03-21T13:38:51;2.38;;;1.25;;
10963;SDS011;5534;48.784;9.190;2023-03-21T13:41:35;3.95;;;1.45;;
10963;SDS011;5534;48.784;9.190;2023-03-21T13:48:56;1.50;;;1.30;;
10963;SDS011;5534;48.784;9.190;2023-03-21T13:51:42;2.65;;;1.50;;
10963;SDS011;5534;48.784;9.190;2023-03-21T13:54:28;2.65;;;1.50;;
10963;SDS011;5534;48.784;9.190;2023-03-21T13:57:19;2.40;;;1.42;;
10963;SDS011;5534;48.784;9.190;2023-03-21T14:00:13;1.65;;;1.13;;
10963;SDS011;5534;48.784;9.190;2023-03-21T14:05:23;1.80;;;1.20;;
10963;SDS011;5534;48.784;9.190;2023-03-21T14:08:00;3.22;;;1.60;;
10963;SDS011;5534;48.784;9.190;2023-03-21T14:10:33;2.15;;;1.20;;
10963;SDS011;5534;48.784;9.190;2023-03-21T14:13:02;2.75;;;1.77;;
10963;SDS011;5534;48.784;9.190;2023-03-21T14:15:38;7.78;;;1.77;;
10963;SDS011;5534;48.784;9.190;2023-03-21T14:18:13;2.55;;;1.42;;
10963;SDS011;5534;48.784;9.190;2023-03-21T14:20:41;4.60;;;1.55;;
10963;SDS011;5534;48.784;9.190;2023-03-21T14:23:14;2.08;;;1.80;;
10963;SDS011;5534;48.784;9.190;2023-03-21T14:25:41;4.55;;;2.08;;
10963;SDS011;5534;48.784;9.190;2023-03-21T14:28:44;2.25;;;1.58;;
10963;SDS011;5534;48.784;9.190;2023-03-21T14:31:04;4.47;;;1.42;;
10963;SDS011;5534;48.784;9.190;2023-03-21T14:33:31;2.33;;;1.70;;
10963;SDS011;5534;48.784;9.190;2023-03-21T14:36:03;2.17;;;1.42;;
10963;SDS011;5534;48.784;9.190;2023-03-21T14:38:37;2.60;;;1.50;;
10963;SDS011;5534;48.784;9.190;2023-03-21T14:41:04;2.72;;;1.70;;
10963;SDS011;5534;48.784;9.190;2023-03-21T14:43:42;3.47;;;1.60;;
10963;SDS011;5534;48.784;9.190;2023-03-21T14:46:11;3.33;;;1.83;;
10963;SDS011;5534;48.784;9.190;2023-03-21T14:48:37;2.60;;;1.80;;
10963;SDS011;5534;48.784;9.190;2023-03-21T14:51:04;5.55;;;1.88;;
10963;SDS011;5534;48.784;9.190;2023-03-21T14:53:36;3.83;;;1.98;;
10963;SDS011;5534;48.784;9.190;2023-03-21T14:56:17;2.92;;;1.70;;
10963;SDS011;5534;48.784;9.190;2023-03-21T14:58:49;3.67;;;2.20;;
10963;SDS011;5534;48.784;9.190;2023-03-21T15:01:38;3.97;;;1.80;;
10963;SDS011;5534;48.784;9.190;2023-03-21T15:04:04;2.40;;;1.58;;
10963;SDS011;5534;48.784;9.190;2023-03-21T15:06:30;2.83;;;1.73;;
10963;SDS011;5534;48.784;9.190;2023-03-21T15:09:00;2.42;;;1.60;;
10963;SDS011;5534;48.784;9.190;2023-03-21T15:11:36;3.30;;;2.10;;
10963;SDS011;5534;48.784;9.190;2023-03-21T15:14:04;2.28;;;1.60;;
10963;SDS011;5534;48.784;9.190;2023-03-21T15:16:32;3.63;;;1.65;;
10963;SDS011;5534;48.784;9.190;2023-03-21T15:18:59;3.75;;;2.13;;
10963;SDS011;5534;48.784;9.190;2023-03-21T15:21:39;4.65;;;2.17;;
10963;SDS011;5534;48.784;9.190;2023-03-21T15:24:10;2.95;;;1.45;;
10963;SDS011;5534;48.784;9.190;2023-03-21T15:26:42;2.35;;;1.77;;
10963;SDS011;5534;48.784;9.190;2023-03-21T15:29:10;2.55;;;1.80;;
10963;SDS011;5534;48.784;9.190;2023-03-21T15:31:38;3.05;;;1.55;;
10963;SDS011;5534;48.784;9.190;2023-03-21T15:34:05;4.15;;;1.83;;
10963;SDS011;5534;48.784;9.190;2023-03-21T15:36:33;4.72;;;1.55;;
10963;SDS011;5534;48.784;9.190;2023-03-21T15:39:05;1.83;;;1.48;;
10963;SDS011;5534;48.784;9.190;2023-03-21T15:41:36;3.13;;;2.08;;
10963;SDS011;5534;48.784;9.190;2023-03-21T15:46:44;2.97;;;1.95;;
10963;SDS011;5534;48.784;9.190;2023-03-21T15:49:29;3.80;;;2.03;;
10963;SDS011;5534;48.784;9.190;2023-03-21T15:52:15;4.03;;;2.22;;
10963;SDS011;5534;48.784;9.190;2023-03-21T15:54:43;3.20;;;2.03;;
10963;SDS011;5534;48.784;9.190;2023-03-21T16:02:43;3.65;;;1.95;;
10963;SDS011;5534;48.784;9.190;2023-03-21T16:07:52;2.80;;;1.98;;
10963;SDS011;5534;48.784;9.190;2023-03-21T16:10:29;2.80;;;1.75;;
10963;SDS011;5534;48.784;9.190;2023-03-21T16:12:58;3.25;;;1.90;;
10963;SDS011;5534;48.784;9.190;2023-03-21T16:15:25;4.13;;;1.63;;
10963;SDS011;5534;48.784;9.190;2023-03-21T16:17:54;4.15;;;1.73;;
10963;SDS011;5534;48.784;9.190;2023-03-21T16:20:30;4.50;;;2.30;;
10963;SDS011;5534;48.784;9.190;2023-03-21T16:23:04;3.15;;;1.90;;
10963;SDS011;5534;48.784;9.190;2023-03-21T16:25:30;2.42;;;1.95;;
10963;SDS011;5534;48.784;9.190;2023-03-21T16:27:57;2.70;;;1.90;;
10963;SDS011;5534;48.784;9.190;2023-03-21T16:30:24;3.83;;;2.00;;
10963;SDS011;5534;48.784;9.190;2023-03-21T16:32:51;3.25;;;1.90;;
10963;SDS011;5534;48.784;9.190;2023-03-21T16:35:17;3.72;;;1.92;;
10963;SDS011;5534;48.784;9.190;2023-03-21T16:37:43;2.65;;;2.13;;
10963;SDS011;5534;48.784;9.190;2023-03-21T16:40:22;3.30;;;2.30;;
10963;SDS011;5534;48.784;9.190;2023-03-21T16:42:51;3.92;;;2.42;;
10963;SDS011;5534;48.784;9.190;2023-03-21T16:45:17;2.47;;;1.98;;
10963;SDS011;5534;48.784;9.190;2023-03-21T16:47:43;5.82;;;2.65;;
10963;SDS011;5534;48.784;9.190;2023-03-21T16:50:17;5.35;;;3.30;;
10963;SDS011;5534;48.784;9.190;2023-03-21T16:52:47;8.98;;;4.10;;
10963;SDS011;5534;48.784;9.190;2023-03-21T16:55:13;3.88;;;2.63;;
10963;SDS011;5534;48.784;9.190;2023-03-21T16:57:39;3.35;;;2.40;;
10963;SDS011;5534;48.784;9.190;2023-03-21T17:00:06;6.88;;;2.30;;
10963;SDS011;5534;48.784;9.190;2023-03-21T17:02:35;4.45;;;2.22;;
10963;SDS011;5534;48.784;9.190;2023-03-21T17:05:01;2.35;;;2.00;;